createdAt,value
2023-02-15T00:02:07.509Z,6.65
2023-02-15T00:04:51.167Z,6.61
2023-02-15T00:07:21.265Z,6.52
2023-02-15T00:09:49.767Z,6.44
2023-02-15T00:12:18.769Z,6.37
2023-02-15T00:14:46.854Z,6.30
2023-02-15T00:17:14.901Z,6.21
2023-02-15T00:19:42.895Z,6.09
2023-02-15T00:22:11.210Z,5.98
2023-02-15T00:24:40.518Z,5.87
2023-02-15T00:27:10.216Z,5.78
2023-02-15T00:29:38.563Z,5.73
2023-02-15T00:32:07.152Z,5.71
2023-02-15T00:34:35.150Z,5.68
2023-02-15T00:37:03.598Z,5.72
2023-02-15T00:39:31.601Z,5.72
2023-02-15T00:42:00.987Z,5.70
2023-02-15T00:44:28.999Z,5.68
2023-02-15T00:46:57.066Z,5.69
2023-02-15T00:49:25.093Z,5.70
2023-02-15T00:51:53.044Z,5.76
2023-02-15T00:54:21.138Z,5.76
2023-02-15T00:56:49.075Z,5.76
2023-02-15T00:59:18.509Z,5.77
2023-02-15T01:01:46.508Z,5.78
2023-02-15T01:04:14.598Z,5.77
2023-02-15T01:06:42.645Z,5.75
2023-02-15T01:09:10.657Z,5.76
2023-02-15T01:11:38.692Z,5.76
2023-02-15T01:14:06.695Z,5.77
2023-02-15T01:16:36.061Z,5.79
2023-02-15T01:19:04.807Z,5.78
2023-02-15T01:21:35.419Z,5.71
2023-02-15T01:24:03.595Z,5.68
2023-02-15T01:26:31.644Z,5.64
2023-02-15T01:28:59.590Z,5.59
2023-02-15T01:31:27.802Z,5.52
2023-02-15T01:33:57.277Z,5.46
2023-02-15T01:36:25.273Z,5.46
2023-02-15T01:38:53.230Z,5.45
2023-02-15T01:41:25.035Z,5.53
2023-02-15T01:43:55.466Z,5.63
2023-02-15T01:46:28.432Z,5.71
2023-02-15T01:49:02.273Z,5.79
2023-02-15T01:51:33.701Z,5.87
2023-02-15T01:54:08.029Z,5.88
2023-02-15T01:56:40.156Z,5.91
2023-02-15T01:59:11.369Z,5.97
2023-02-15T02:01:40.238Z,6.04
2023-02-15T02:04:17.286Z,6.10
2023-02-15T02:06:48.753Z,6.15
2023-02-15T02:09:17.084Z,6.16
2023-02-15T02:11:48.625Z,6.14
2023-02-15T02:14:17.701Z,6.09
2023-02-15T02:16:55.029Z,5.96
2023-02-15T02:19:48.527Z,5.96
2023-02-15T02:22:50.372Z,6.04
2023-02-15T02:25:45.811Z,6.07
2023-02-15T02:28:36.802Z,5.90
2023-02-15T02:31:33.679Z,5.64
2023-02-15T02:34:09.907Z,5.42
2023-02-15T02:36:46.833Z,5.29
2023-02-15T02:39:26.266Z,5.22
2023-02-15T02:42:03.729Z,5.16
2023-02-15T02:44:37.714Z,5.12
2023-02-15T02:47:12.895Z,5.09
2023-02-15T02:49:44.476Z,5.12
2023-02-15T02:52:37.872Z,5.15
2023-02-15T02:55:09.751Z,5.17
2023-02-15T02:57:43.538Z,5.18
2023-02-15T03:00:13.441Z,5.22
2023-02-15T03:02:45.472Z,5.23
2023-02-15T03:05:19.184Z,5.17
2023-02-15T03:07:52.159Z,5.11
2023-02-15T03:10:23.201Z,5.12
2023-02-15T03:12:52.698Z,5.10
2023-02-15T03:15:23.376Z,5.07
2023-02-15T03:17:56.465Z,4.89
2023-02-15T03:20:30.720Z,4.65
2023-02-15T09:11:14.615Z,4.47
2023-02-15T09:13:42.660Z,4.51
2023-02-15T09:16:11.740Z,4.60
2023-02-15T09:18:41.471Z,4.61
2023-02-15T09:21:11.105Z,4.85
2023-02-15T09:23:39.325Z,5.00
2023-02-15T09:26:09.601Z,5.04
2023-02-15T09:28:39.362Z,5.14
2023-02-15T09:31:12.731Z,5.23
2023-02-15T09:33:42.414Z,5.30
2023-02-15T09:36:18.506Z,5.28
2023-02-15T09:38:47.397Z,5.31
2023-02-15T09:41:36.486Z,5.42
2023-02-15T09:44:16.030Z,5.51
2023-02-15T09:47:00.520Z,5.61
2023-02-15T09:49:39.096Z,5.69
2023-02-15T09:52:34.921Z,5.76
2023-02-15T09:55:14.226Z,5.85
2023-02-15T09:57:53.053Z,5.99
2023-02-15T10:00:33.052Z,6.11
2023-02-15T10:03:20.889Z,6.23
2023-02-15T10:06:02.527Z,6.36
2023-02-15T10:08:55.817Z,6.47
2023-02-15T10:11:41.872Z,6.54
2023-02-15T10:14:22.832Z,6.53
2023-02-15T10:17:03.360Z,6.58
2023-02-15T10:19:42.669Z,6.65
2023-02-15T10:22:24.119Z,6.73
2023-02-15T10:25:13.093Z,6.83
2023-02-15T10:27:47.995Z,6.95
2023-02-15T10:30:18.098Z,7.14
2023-02-15T10:33:01.154Z,7.72
2023-02-15T10:35:42.663Z,8.75
2023-02-15T10:38:27.236Z,9.88
2023-02-15T10:41:05.734Z,10.93
2023-02-15T10:44:10.392Z,11.94
2023-02-15T10:46:56.200Z,12.69
2023-02-15T10:49:39.400Z,13.31
2023-02-15T10:52:24.432Z,13.74
2023-02-15T10:55:04.810Z,13.94
2023-02-15T10:57:43.834Z,14.20
2023-02-15T11:00:18.990Z,14.43
2023-02-15T11:03:07.934Z,14.61
2023-02-15T11:05:46.511Z,14.75
2023-02-15T11:08:15.160Z,14.82
2023-02-15T11:10:49.111Z,14.97
2023-02-15T11:13:19.950Z,15.07
2023-02-15T11:15:53.298Z,15.14
2023-02-15T11:18:27.543Z,15.18
2023-02-15T11:21:02.138Z,15.23
2023-02-15T11:23:31.217Z,15.18
2023-02-15T11:26:01.987Z,15.16
2023-02-15T11:28:34.354Z,15.13
2023-02-15T11:31:14.035Z,15.10
2023-02-15T11:33:46.985Z,15.04
2023-02-15T11:36:20.600Z,14.93
2023-02-15T11:38:53.167Z,14.84
2023-02-15T11:41:25.341Z,14.75
2023-02-15T11:43:59.445Z,14.64
2023-02-15T11:46:27.662Z,14.55
2023-02-15T11:48:55.812Z,14.46
2023-02-15T11:51:25.473Z,14.32
2023-02-15T11:53:54.734Z,14.29
2023-02-15T11:56:25.161Z,14.21
2023-02-15T11:58:58.175Z,14.09
2023-02-15T12:01:33.249Z,13.95
2023-02-15T12:04:06.452Z,13.82
2023-02-15T12:06:41.329Z,13.75
2023-02-15T12:09:23.159Z,13.63
2023-02-15T12:11:51.815Z,13.57
2023-02-15T12:14:19.815Z,13.48
2023-02-15T12:16:51.157Z,13.50
2023-02-15T12:19:32.641Z,13.48
2023-02-15T12:22:04.452Z,13.47
2023-02-15T12:24:35.455Z,13.53
2023-02-15T12:27:06.078Z,13.47
2023-02-15T12:29:42.103Z,13.55
2023-02-15T12:32:19.280Z,13.59
2023-02-15T12:34:48.930Z,13.64
2023-02-15T12:37:25.336Z,13.62
2023-02-15T12:39:56.213Z,13.67
2023-02-15T12:42:25.518Z,13.69
2023-02-15T12:45:00.225Z,13.69
2023-02-15T12:47:29.726Z,13.66
2023-02-15T12:50:20.303Z,13.72
2023-02-15T12:52:51.457Z,13.75
2023-02-15T12:55:26.515Z,13.80
2023-02-15T12:58:17.141Z,13.85
2023-02-15T13:00:45.399Z,13.91
2023-02-15T13:03:20.468Z,13.91
2023-02-15T13:05:53.181Z,13.93
2023-02-15T13:08:28.165Z,13.98
2023-02-15T13:10:58.882Z,14.00
2023-02-15T13:13:30.534Z,14.02
2023-02-15T13:16:02.074Z,14.04
2023-02-15T13:18:34.256Z,14.07
2023-02-15T13:21:12.399Z,14.11
2023-02-15T13:23:47.029Z,14.15
2023-02-15T13:26:21.491Z,14.22
2023-02-15T13:28:54.276Z,14.23
2023-02-15T13:31:26.141Z,14.32
2023-02-15T13:33:59.253Z,14.34
2023-02-15T13:36:34.089Z,14.47
2023-02-15T13:39:15.801Z,14.49
2023-02-15T13:41:55.538Z,14.55
2023-02-15T13:44:45.307Z,14.60
2023-02-15T13:47:24.631Z,14.66
2023-02-15T13:50:05.224Z,14.70
2023-02-15T13:52:42.935Z,14.77
2023-02-15T13:55:29.166Z,14.82
2023-02-15T13:58:18.046Z,14.85
2023-02-15T14:00:54.209Z,14.88
2023-02-15T14:03:54.756Z,14.91
2023-02-15T14:06:45.807Z,14.94
2023-02-15T14:09:27.591Z,14.93
2023-02-15T14:12:23.626Z,14.94
2023-02-15T14:15:14.434Z,14.96
2023-02-15T14:17:52.682Z,14.96
2023-02-15T14:20:27.068Z,14.95
2023-02-15T14:23:07.128Z,14.94
2023-02-15T14:25:41.462Z,14.89
2023-02-15T14:28:17.166Z,14.87
2023-02-15T14:30:49.248Z,14.86
2023-02-15T14:33:35.226Z,14.84
2023-02-15T14:36:07.660Z,14.81
2023-02-15T14:39:02.193Z,14.74
2023-02-15T14:41:39.043Z,14.69
2023-02-15T14:44:15.572Z,14.69
2023-02-15T14:46:52.220Z,14.66
2023-02-15T14:49:25.192Z,14.55
2023-02-15T14:51:59.981Z,14.59
2023-02-15T14:55:02.267Z,14.56
2023-02-15T14:57:35.825Z,14.52
2023-02-15T15:00:23.250Z,14.50
2023-02-15T15:02:55.577Z,14.48
2023-02-15T15:05:35.543Z,14.46
2023-02-15T15:08:05.483Z,14.45
2023-02-15T15:10:43.654Z,14.41
2023-02-15T15:13:40.458Z,14.41
2023-02-15T15:16:30.919Z,14.39
2023-02-15T15:18:59.908Z,14.38
2023-02-15T15:21:59.060Z,14.36
2023-02-15T15:24:53.320Z,14.37
2023-02-15T15:27:41.062Z,14.36
2023-02-15T15:30:47.764Z,14.36
2023-02-15T15:33:31.965Z,14.35
2023-02-15T15:36:21.309Z,14.35
2023-02-15T15:39:02.175Z,14.38
2023-02-15T15:41:44.453Z,14.40
2023-02-15T15:47:23.713Z,14.36
2023-02-15T15:49:58.423Z,14.29
2023-02-15T15:52:28.642Z,14.04
2023-02-15T15:55:00.141Z,14.12
2023-02-15T15:57:32.345Z,14.05
2023-02-15T16:00:01.259Z,14.01
2023-02-15T16:02:30.110Z,13.95
2023-02-15T16:05:09.254Z,13.95
2023-02-15T16:07:38.906Z,13.97
2023-02-15T16:10:21.572Z,13.94
2023-02-15T16:12:51.685Z,13.92
2023-02-15T16:15:22.820Z,13.89
2023-02-15T16:17:56.034Z,13.84
2023-02-15T16:20:27.944Z,13.81
2023-02-15T16:23:07.566Z,13.73
2023-02-15T16:25:44.870Z,13.66
2023-02-15T16:28:14.776Z,13.59
2023-02-15T16:30:45.514Z,13.53
2023-02-15T16:33:15.800Z,13.50
2023-02-15T16:35:57.275Z,13.43
2023-02-15T16:38:47.192Z,13.32
2023-02-15T16:41:17.360Z,13.28
2023-02-15T16:43:49.941Z,13.21
2023-02-15T16:46:21.937Z,13.14
2023-02-15T16:48:53.849Z,13.06
2023-02-15T16:51:28.459Z,13.00
2023-02-15T16:53:58.803Z,12.90
2023-02-15T16:56:28.726Z,12.81
2023-02-15T16:58:58.878Z,12.76
2023-02-15T17:01:29.767Z,12.73
2023-02-15T17:04:14.367Z,12.70
2023-02-15T17:06:59.283Z,12.68
2023-02-15T17:09:27.617Z,12.62
2023-02-15T17:11:56.041Z,12.57
2023-02-15T17:14:29.705Z,12.50
2023-02-15T17:17:03.542Z,12.43
2023-02-15T17:19:34.206Z,12.41
2023-02-15T17:22:07.705Z,12.37
2023-02-15T17:24:39.319Z,12.38
2023-02-15T17:27:14.385Z,12.32
2023-02-15T17:29:46.382Z,12.32
2023-02-15T17:32:20.033Z,12.32
2023-02-15T17:35:00.232Z,12.26
2023-02-15T17:37:33.574Z,12.17
2023-02-15T17:40:03.302Z,12.10
2023-02-15T17:42:31.300Z,12.02
2023-02-15T17:44:59.532Z,11.92
2023-02-15T17:47:30.231Z,11.77
2023-02-15T17:49:58.397Z,11.63
2023-02-15T17:52:31.635Z,11.53
2023-02-15T17:55:17.058Z,11.55
2023-02-15T17:57:47.635Z,11.60
2023-02-15T18:00:34.176Z,11.62
2023-02-15T18:03:19.565Z,11.61
2023-02-15T18:06:04.886Z,11.55
2023-02-15T18:08:51.928Z,11.52
2023-02-15T18:11:36.983Z,11.50
2023-02-15T18:14:06.063Z,11.35
2023-02-15T18:16:37.000Z,11.26
2023-02-15T18:19:06.501Z,11.19
2023-02-15T18:21:35.085Z,11.05
2023-02-15T18:24:04.720Z,10.95
2023-02-15T18:26:32.707Z,10.87
2023-02-15T18:29:00.821Z,10.78
2023-02-15T18:31:29.310Z,10.79
2023-02-15T18:34:00.979Z,10.75
2023-02-15T18:36:32.905Z,10.71
2023-02-15T18:39:08.504Z,10.69
2023-02-15T18:41:38.656Z,10.68
2023-02-15T18:44:12.845Z,10.65
2023-02-15T18:46:40.897Z,10.61
2023-02-15T18:49:08.890Z,10.61
2023-02-15T18:51:40.278Z,10.63
2023-02-15T18:54:18.205Z,10.66
2023-02-15T18:56:52.753Z,10.71
2023-02-15T18:59:21.501Z,10.78
2023-02-15T19:01:49.634Z,10.83
2023-02-15T19:04:18.443Z,10.83
2023-02-15T19:06:49.086Z,10.68
2023-02-15T19:09:21.023Z,10.51
2023-02-15T19:11:53.834Z,10.38
2023-02-15T19:14:30.270Z,10.27
2023-02-15T19:17:00.185Z,10.21
2023-02-15T19:19:29.111Z,10.19
2023-02-15T19:21:57.659Z,10.13
2023-02-15T19:24:34.236Z,10.11
2023-02-15T19:27:04.473Z,10.09
2023-02-15T19:29:32.854Z,10.09
2023-02-15T19:32:01.073Z,10.04
2023-02-15T19:34:29.378Z,9.97
2023-02-15T19:36:58.005Z,9.94
2023-02-15T19:39:29.025Z,9.95
2023-02-15T19:41:57.624Z,9.79
2023-02-15T19:44:26.999Z,9.64
2023-02-15T19:46:55.406Z,9.61
2023-02-15T19:49:23.591Z,9.51
2023-02-15T19:51:51.974Z,9.42
2023-02-15T19:54:29.077Z,9.35
2023-02-15T19:56:57.568Z,9.29
2023-02-15T19:59:29.189Z,9.27
2023-02-15T20:01:58.200Z,9.29
2023-02-15T20:04:27.128Z,9.31
2023-02-15T20:06:58.394Z,9.31
2023-02-15T20:09:30.311Z,9.31
2023-02-15T20:11:58.495Z,9.33
2023-02-15T20:14:28.470Z,9.33
2023-02-15T20:16:56.518Z,9.26
2023-02-15T20:19:24.578Z,9.18
2023-02-15T20:21:55.078Z,9.11
2023-02-15T20:24:25.848Z,9.08
2023-02-15T20:26:54.075Z,9.07
2023-02-15T20:29:22.155Z,9.04
2023-02-15T20:31:55.211Z,8.97
2023-02-15T20:34:23.479Z,9.01
2023-02-15T20:36:52.653Z,9.05
2023-02-15T20:39:21.062Z,9.07
2023-02-15T20:41:49.094Z,9.04
2023-02-15T20:44:23.456Z,8.99
2023-02-15T20:46:55.480Z,8.93
2023-02-15T20:49:25.339Z,8.89
2023-02-15T20:51:55.326Z,8.85
2023-02-15T20:54:25.256Z,8.81
2023-02-15T20:56:54.346Z,8.77
2023-02-15T20:59:25.696Z,8.78
2023-02-15T21:01:58.749Z,8.72
2023-02-15T21:04:31.597Z,8.68
2023-02-15T21:07:00.124Z,8.64
2023-02-15T21:09:28.335Z,8.60
2023-02-15T21:11:58.205Z,8.59
2023-02-15T21:14:29.630Z,8.51
2023-02-15T21:16:59.214Z,8.44
2023-02-15T21:19:27.236Z,8.41
2023-02-15T21:21:55.581Z,8.40
2023-02-15T21:24:26.019Z,8.39
2023-02-15T21:26:55.717Z,8.39
2023-02-15T21:29:26.279Z,8.34
2023-02-15T21:31:54.570Z,8.28
2023-02-15T21:34:24.434Z,8.13
2023-02-15T21:36:52.704Z,8.03
2023-02-15T21:39:23.894Z,7.92
2023-02-15T21:42:11.360Z,7.88
2023-02-15T21:44:56.689Z,7.86
2023-02-15T21:47:44.410Z,7.90
2023-02-15T21:50:32.811Z,7.93
2023-02-15T21:53:01.814Z,7.93
2023-02-15T21:55:31.293Z,7.89
2023-02-15T21:57:59.359Z,7.88
2023-02-15T22:00:28.705Z,7.82
2023-02-15T22:02:59.427Z,7.84
2023-02-15T22:05:30.414Z,7.88
2023-02-15T22:07:58.579Z,7.94
2023-02-15T22:10:30.127Z,7.96
2023-02-15T22:12:58.645Z,7.98
2023-02-15T22:15:30.219Z,8.00
2023-02-15T22:17:58.340Z,7.92
2023-02-15T22:20:28.304Z,7.77
2023-02-15T22:22:56.432Z,7.59
2023-02-15T22:25:26.186Z,7.48
2023-02-15T22:27:55.328Z,7.42
2023-02-15T22:30:27.419Z,7.37
2023-02-15T22:32:55.962Z,7.31
2023-02-15T22:35:26.732Z,7.31
2023-02-15T22:37:56.495Z,7.37
2023-02-15T22:40:30.223Z,7.38
2023-02-15T22:43:01.043Z,7.43
2023-02-15T22:45:29.637Z,7.43
2023-02-15T22:47:59.703Z,7.42
2023-02-15T22:50:29.729Z,7.41
2023-02-15T22:53:01.286Z,7.37
2023-02-15T22:55:33.450Z,7.43
2023-02-15T22:58:02.079Z,7.50
2023-02-15T23:00:33.750Z,7.51
2023-02-15T23:03:02.416Z,7.52
2023-02-15T23:05:32.231Z,7.53
2023-02-15T23:08:01.579Z,7.49
2023-02-15T23:10:30.143Z,7.40
2023-02-15T23:13:17.936Z,7.31
2023-02-15T23:15:48.849Z,7.27
2023-02-15T23:18:19.677Z,7.21
2023-02-15T23:20:49.952Z,7.16
2023-02-15T23:23:23.706Z,7.18
2023-02-15T23:25:51.663Z,7.15
2023-02-15T23:28:23.341Z,7.12
2023-02-15T23:30:51.945Z,7.14
2023-02-15T23:33:22.867Z,7.14
2023-02-15T23:35:51.125Z,7.20
2023-02-15T23:38:23.051Z,7.20
2023-02-15T23:41:12.373Z,7.24
2023-02-15T23:43:42.910Z,7.32
2023-02-15T23:46:23.892Z,7.44
2023-02-15T23:48:53.009Z,7.51
2023-02-15T23:51:21.954Z,7.54
2023-02-15T23:53:51.373Z,7.45
2023-02-15T23:56:19.679Z,7.46
2023-02-15T23:58:48.592Z,7.44
